PWSweather.com
Personal Weather Stations
Station Observations
KPASPRIN10
East Vincent, East Vincent, PA 19475

East VincentEast Vincent, PA 19475

Lat: 40.170948, Lon: -75.629681

Elevation: 404

Station Type: Davis VP2

http://www.evweather.com

Latest ConditionsUpdated 4:00:02 AM EST Friday, Feb 22, 2019
Currently Today's Max Today's Min Today's Average
Temperature 41.3°F5.2°C 43.7°F6.5°C 40.9°F4.9°C 42.4°F5.8°C
Dew Point 29.6°F-1.3°C 30.3°F-0.9°C 29.4°F-1.4°C 29.9°F-1.2°C
Winds 4.6 mph NW7.4 kmh NW 8.1 mph -13.0 kmh - - 5.2 mph 8.4 kmh
Wind Gusts 8.1 mph13.0 kmh 12.7 mph20.4 kmh - -
Humidity 63% 64% 57% 61%
Pressure 30.22 in1023.4 mb 30.23 in1023.7 mb 30.17 in1021.7 mb -
Hour Temp Dew Point Humidity Winds Wind Gusts Pressure Precip Precip Rate Daily Precip Total
04:00 AM 41.3°F5.2°C 29.6°F-1.3°C 63% 4.6 mph NW7.4 kmh NW 8.1 mph13.0 kmh 30.22 in1023.4 mb - 0.00 in0.0 mm 0.00 in0.0 mm
03:50 AM 41.1°F5.1°C 29.8°F-1.2°C 64% 5.8 mph WNW9.3 kmh WNW 5.8 mph9.3 kmh 30.22 in1023.4 mb - 0.00 in0.0 mm 0.00 in0.0 mm
03:40 AM 40.9°F4.9°C 29.7°F-1.3°C 64% 6.9 mph WNW11.1 kmh WNW 8.1 mph13.0 kmh 30.23 in1023.7 mb - 0.00 in0.0 mm 0.00 in0.0 mm
03:30 AM 41.3°F5.2°C 29.6°F-1.3°C 63% 3.5 mph NW5.6 kmh NW 6.9 mph11.1 kmh 30.22 in1023.4 mb - 0.00 in0.0 mm 0.00 in0.0 mm
03:20 AM 41.5°F5.3°C 29.9°F-1.2°C 63% 3.5 mph NW5.6 kmh NW 8.1 mph13.0 kmh 30.22 in1023.4 mb - 0.00 in0.0 mm 0.00 in0.0 mm
03:10 AM 41.9°F5.5°C 29.4°F-1.4°C 61% 4.6 mph NW7.4 kmh NW 6.9 mph11.1 kmh 30.22 in1023.4 mb - 0.00 in0.0 mm 0.00 in0.0 mm
03:00 AM 42.0°F5.6°C 29.5°F-1.4°C 61% 5.8 mph NW9.3 kmh NW 9.2 mph14.8 kmh 30.22 in1023.4 mb - 0.00 in0.0 mm 0.00 in0.0 mm
02:50 AM 42.3°F5.7°C 29.8°F-1.2°C 61% 4.6 mph WNW7.4 kmh WNW 6.9 mph11.1 kmh 30.21 in1023.0 mb - 0.00 in0.0 mm 0.00 in0.0 mm
02:40 AM 42.3°F5.7°C 29.8°F-1.2°C 61% 3.5 mph NW5.6 kmh NW 4.6 mph7.4 kmh 30.22 in1023.4 mb - 0.00 in0.0 mm 0.00 in0.0 mm
02:30 AM 42.4°F5.8°C 30.3°F-0.9°C 62% 4.6 mph W7.4 kmh W 6.9 mph11.1 kmh 30.22 in1023.4 mb - 0.00 in0.0 mm 0.00 in0.0 mm
02:20 AM 42.3°F5.7°C 29.8°F-1.2°C 61% 4.6 mph WNW7.4 kmh WNW 9.2 mph14.8 kmh 30.22 in1023.4 mb - 0.00 in0.0 mm 0.00 in0.0 mm
02:10 AM 42.4°F5.8°C 30.3°F-0.9°C 62% 2.3 mph WNW3.7 kmh WNW 9.2 mph14.8 kmh 30.23 in1023.7 mb - 0.00 in0.0 mm 0.00 in0.0 mm
02:00 AM 42.2°F5.7°C 30.1°F-1.1°C 62% 4.6 mph WNW7.4 kmh WNW 8.1 mph13.0 kmh 30.22 in1023.4 mb - 0.00 in0.0 mm 0.00 in0.0 mm
01:50 AM 42.5°F5.8°C 30.0°F-1.1°C 61% 4.6 mph W7.4 kmh W 6.9 mph11.1 kmh 30.22 in1023.4 mb - 0.00 in0.0 mm 0.00 in0.0 mm
01:40 AM 42.6°F5.9°C 30.1°F-1.1°C 61% 4.6 mph W7.4 kmh W 5.8 mph9.3 kmh 30.21 in1023.0 mb - 0.00 in0.0 mm 0.00 in0.0 mm
01:30 AM 42.7°F5.9°C 29.8°F-1.2°C 60% 5.8 mph WNW9.3 kmh WNW 10.4 mph16.7 kmh 30.21 in1023.0 mb - 0.00 in0.0 mm 0.00 in0.0 mm
01:20 AM 42.4°F5.8°C 30.3°F-0.9°C 62% 4.6 mph W7.4 kmh W 8.1 mph13.0 kmh 30.22 in1023.4 mb - 0.00 in0.0 mm 0.00 in0.0 mm
01:10 AM 42.9°F6.1°C 30.0°F-1.1°C 60% 6.9 mph WNW11.1 kmh WNW 11.5 mph18.5 kmh 30.22 in1023.4 mb - 0.00 in0.0 mm 0.00 in0.0 mm
01:00 AM 43.1°F6.2°C 29.7°F-1.3°C 59% 5.8 mph W9.3 kmh W 6.9 mph11.1 kmh 30.22 in1023.4 mb - 0.00 in0.0 mm 0.00 in0.0 mm
12:50 AM 43.1°F6.2°C 30.1°F-1.1°C 60% 8.1 mph W13.0 kmh W 10.4 mph16.7 kmh 30.21 in1023.0 mb - 0.00 in0.0 mm 0.00 in0.0 mm
12:40 AM 43.3°F6.3°C 29.9°F-1.2°C 59% 6.9 mph W11.1 kmh W 12.7 mph20.4 kmh 30.20 in1022.7 mb - 0.00 in0.0 mm 0.00 in0.0 mm
12:30 AM 43.2°F6.2°C 29.8°F-1.2°C 59% 8.1 mph W13.0 kmh W 8.1 mph13.0 kmh 30.20 in1022.7 mb - 0.00 in0.0 mm 0.00 in0.0 mm
12:20 AM 43.7°F6.5°C 29.9°F-1.2°C 58% 6.9 mph WNW11.1 kmh WNW 11.5 mph18.5 kmh 30.18 in1022.0 mb - 0.00 in0.0 mm 0.00 in0.0 mm
12:10 AM 43.7°F6.5°C 29.5°F-1.4°C 57% 4.6 mph W7.4 kmh W 11.5 mph18.5 kmh 30.18 in1022.0 mb - 0.00 in0.0 mm 0.00 in0.0 mm
12:00 AM 43.6°F6.4°C 29.8°F-1.2°C 58% 4.6 mph W7.4 kmh W 8.1 mph13.0 kmh 30.17 in1021.7 mb - 0.00 in0.0 mm 0.00 in0.0 mm